createdAt,value
2022-09-29T00:02:26.300Z,14.68
2022-09-29T00:04:56.334Z,14.67
2022-09-29T00:07:26.212Z,14.65
2022-09-29T00:09:56.013Z,14.65
2022-09-29T00:12:25.879Z,14.61
2022-09-29T00:14:55.980Z,14.57
2022-09-29T00:17:28.661Z,14.51
2022-09-29T00:19:58.790Z,14.52
2022-09-29T00:22:28.823Z,14.50
2022-09-29T00:24:58.682Z,14.48
2022-09-29T00:27:28.918Z,14.44
2022-09-29T00:29:58.821Z,14.40
2022-09-29T00:32:31.395Z,14.40
2022-09-29T00:35:01.368Z,14.43
2022-09-29T00:37:31.775Z,14.47
2022-09-29T00:40:01.935Z,14.49
2022-09-29T00:42:32.745Z,14.50
2022-09-29T00:45:08.594Z,14.50
2022-09-29T00:47:44.002Z,14.52
2022-09-29T00:50:19.295Z,14.53
2022-09-29T00:52:54.991Z,14.54
2022-09-29T00:55:31.461Z,14.55
2022-09-29T00:58:06.480Z,14.56
2022-09-29T01:00:36.739Z,14.57
2022-09-29T01:03:13.589Z,14.55
2022-09-29T01:05:47.117Z,14.56
2022-09-29T01:08:20.664Z,14.55
2022-09-29T01:10:51.541Z,14.55
2022-09-29T01:13:22.528Z,14.55
2022-09-29T01:15:52.423Z,14.56
2022-09-29T01:18:24.861Z,14.54
2022-09-29T01:21:00.669Z,14.53
2022-09-29T01:24:06.447Z,14.53
2022-09-29T01:27:09.086Z,14.48
2022-09-29T01:30:07.803Z,14.46
2022-09-29T01:33:04.941Z,14.47
2022-09-29T01:35:44.180Z,14.47
2022-09-29T01:38:26.770Z,14.46
2022-09-29T01:41:06.083Z,14.48
2022-09-29T01:43:40.853Z,14.47
2022-09-29T01:46:16.944Z,14.46
2022-09-29T01:48:53.571Z,14.45
2022-09-29T01:51:27.773Z,14.42
2022-09-29T01:54:03.540Z,14.40
2022-09-29T01:56:38.907Z,14.36
2022-09-29T01:59:15.907Z,14.28
2022-09-29T02:01:48.030Z,14.27
2022-09-29T02:04:24.633Z,14.24
2022-09-29T02:07:00.353Z,14.23
2022-09-29T02:09:34.327Z,14.22
2022-09-29T02:12:07.299Z,14.20
2022-09-29T02:14:45.600Z,14.17
2022-09-29T02:17:21.122Z,14.14
2022-09-29T02:19:54.987Z,14.09
2022-09-29T02:22:24.913Z,14.08
2022-09-29T02:24:59.184Z,14.06
2022-09-29T02:27:30.705Z,14.03
2022-09-29T02:30:01.443Z,13.99
2022-09-29T02:32:33.114Z,13.98
2022-09-29T02:35:07.988Z,13.95
2022-09-29T02:37:50.639Z,13.93
2022-09-29T02:40:31.498Z,13.93
2022-09-29T02:43:23.718Z,13.93
2022-09-29T02:46:06.686Z,13.92
2022-09-29T02:48:56.625Z,13.91
2022-09-29T02:51:33.226Z,13.92
2022-09-29T02:54:18.002Z,13.91
2022-09-29T02:56:55.014Z,13.91
2022-09-29T02:59:30.626Z,13.93
2022-09-29T03:02:00.630Z,13.91
2022-09-29T03:04:31.309Z,13.88
2022-09-29T03:07:04.005Z,13.87
2022-09-29T03:09:33.925Z,13.86
2022-09-29T03:12:04.334Z,13.82
2022-09-29T03:14:34.498Z,13.83
2022-09-29T03:17:04.416Z,13.82
2022-09-29T03:19:34.286Z,13.85
2022-09-29T03:22:06.837Z,13.85
2022-09-29T03:24:36.716Z,13.83
2022-09-29T03:27:06.892Z,13.85
2022-09-29T03:29:36.678Z,13.87
2022-09-29T03:32:07.573Z,13.88
2022-09-29T03:34:38.308Z,13.86
2022-09-29T03:37:11.631Z,13.84
2022-09-29T03:39:41.688Z,13.84
2022-09-29T03:42:11.543Z,13.82
2022-09-29T03:44:41.358Z,13.83
2022-09-29T03:47:11.411Z,13.80
2022-09-29T03:49:41.198Z,13.74
2022-09-29T03:52:13.838Z,13.71
2022-09-29T03:54:43.803Z,13.74
2022-09-29T03:57:13.960Z,13.78
2022-09-29T03:59:45.693Z,13.80
2022-09-29T04:02:18.417Z,13.82
2022-09-29T04:04:48.484Z,13.80
2022-09-29T04:07:20.810Z,13.79
2022-09-29T04:09:50.659Z,13.80
2022-09-29T04:12:20.560Z,13.81
2022-09-29T04:14:50.368Z,13.83
2022-09-29T04:17:20.674Z,13.79
2022-09-29T04:19:50.723Z,13.78
2022-09-29T04:22:23.328Z,13.76
2022-09-29T04:24:53.397Z,13.79
2022-09-29T04:27:23.431Z,13.78
2022-09-29T04:29:53.771Z,13.77
2022-09-29T04:32:24.794Z,13.73
2022-09-29T04:34:54.615Z,13.71
2022-09-29T04:37:27.307Z,13.71
2022-09-29T04:39:57.240Z,13.68
2022-09-29T04:42:27.080Z,13.67
2022-09-29T04:44:56.994Z,13.65
2022-09-29T04:47:26.845Z,13.66
2022-09-29T04:49:56.861Z,13.65
2022-09-29T04:52:29.619Z,13.61
2022-09-29T04:54:59.395Z,13.58
2022-09-29T04:57:29.863Z,13.56
2022-09-29T04:59:59.753Z,13.60
2022-09-29T05:02:29.632Z,13.59
2022-09-29T05:04:59.510Z,13.61
2022-09-29T05:07:32.365Z,13.62
2022-09-29T05:10:02.128Z,13.63
2022-09-29T05:12:31.938Z,13.65
2022-09-29T05:15:02.241Z,13.69
2022-09-29T05:17:32.204Z,13.71
2022-09-29T05:20:02.270Z,13.76
2022-09-29T05:22:34.950Z,13.76
2022-09-29T05:25:04.875Z,13.77
2022-09-29T05:27:34.727Z,13.76
2022-09-29T05:30:04.828Z,13.74
2022-09-29T05:32:34.663Z,13.76
2022-09-29T05:35:08.156Z,13.78
2022-09-29T05:37:40.559Z,13.78
2022-09-29T05:40:11.848Z,13.81
2022-09-29T05:42:42.506Z,13.85
2022-09-29T05:45:13.095Z,13.87
2022-09-29T05:47:45.743Z,13.87
2022-09-29T05:50:15.830Z,13.90
2022-09-29T05:52:49.491Z,13.92
2022-09-29T05:55:19.755Z,13.92
2022-09-29T05:57:52.151Z,13.89
2022-09-29T06:00:22.392Z,13.89
2022-09-29T06:02:52.334Z,13.88
2022-09-29T06:05:22.483Z,13.89
2022-09-29T06:07:55.766Z,13.90
2022-09-29T06:10:26.085Z,13.85
2022-09-29T06:12:57.097Z,13.81
2022-09-29T06:15:27.387Z,13.81
2022-09-29T06:18:01.178Z,13.75
2022-09-29T06:20:31.870Z,13.75
2022-09-29T06:23:04.317Z,13.75
2022-09-29T06:25:34.263Z,13.74
2022-09-29T06:28:04.504Z,13.71
2022-09-29T06:30:34.273Z,13.73
2022-09-29T06:33:04.317Z,13.73
2022-09-29T06:35:46.510Z,13.73
2022-09-29T06:38:19.147Z,13.71
2022-09-29T06:40:49.090Z,13.74
2022-09-29T06:43:18.878Z,13.75
2022-09-29T06:45:48.758Z,13.77
2022-09-29T06:48:18.626Z,13.79
2022-09-29T06:50:55.435Z,13.83
2022-09-29T06:53:37.854Z,13.84
2022-09-29T06:56:09.744Z,13.87
2022-09-29T06:58:40.551Z,13.89
2022-09-29T07:01:10.715Z,13.93
2022-09-29T07:03:41.370Z,13.96
2022-09-29T07:06:19.707Z,13.99
2022-09-29T07:08:57.014Z,14.02
2022-09-29T07:11:27.234Z,13.98
2022-09-29T07:13:57.711Z,14.00
2022-09-29T07:16:27.878Z,13.97
2022-09-29T07:18:57.679Z,13.91
2022-09-29T07:21:27.534Z,13.92
2022-09-29T07:24:02.152Z,13.91
2022-09-29T07:26:32.459Z,13.97
2022-09-29T07:29:02.292Z,13.99
2022-09-29T07:31:42.902Z,13.99
2022-09-29T07:34:17.686Z,14.00
2022-09-29T07:36:47.630Z,13.99
2022-09-29T07:39:20.312Z,14.03
2022-09-29T07:41:50.529Z,14.06
2022-09-29T07:44:20.996Z,14.08
2022-09-29T07:46:51.618Z,14.10
2022-09-29T07:49:21.676Z,14.10
2022-09-29T07:51:52.451Z,14.06
2022-09-29T07:54:29.263Z,14.09
2022-09-29T07:57:00.997Z,14.12
2022-09-29T07:59:31.154Z,14.13
2022-09-29T08:02:02.905Z,14.12
2022-09-29T08:04:32.775Z,14.15
2022-09-29T08:07:03.135Z,14.21
2022-09-29T08:09:40.826Z,14.23
2022-09-29T08:12:11.907Z,14.25
2022-09-29T08:14:44.346Z,14.32
2022-09-29T08:17:14.654Z,14.33
2022-09-29T08:19:44.799Z,14.32
2022-09-29T08:22:14.665Z,14.34
2022-09-29T08:24:47.087Z,14.37
2022-09-29T08:27:19.271Z,14.41
2022-09-29T08:29:49.764Z,14.50
2022-09-29T08:32:19.568Z,14.54
2022-09-29T08:34:49.862Z,14.60
2022-09-29T08:37:19.762Z,14.65
2022-09-29T08:39:52.220Z,14.73
2022-09-29T08:42:29.924Z,14.77
2022-09-29T08:45:16.022Z,14.87
2022-09-29T08:47:50.190Z,14.96
2022-09-29T08:50:29.766Z,15.07
2022-09-29T08:53:03.898Z,15.10
2022-09-29T08:55:43.803Z,15.16
2022-09-29T08:58:17.066Z,15.29
2022-09-29T09:00:56.436Z,15.35
2022-09-29T09:03:59.202Z,15.40
2022-09-29T09:06:41.271Z,15.40
2022-09-29T09:09:31.380Z,15.39
2022-09-29T09:12:25.634Z,15.39
2022-09-29T09:15:08.298Z,15.43
2022-09-29T09:17:58.919Z,15.40
2022-09-29T09:20:36.806Z,15.45
2022-09-29T09:23:16.948Z,15.44
2022-09-29T09:25:52.541Z,15.47
2022-09-29T09:28:30.680Z,15.47
2022-09-29T09:31:06.120Z,15.52
2022-09-29T09:33:42.573Z,15.58
2022-09-29T09:36:27.906Z,15.64
2022-09-29T09:39:05.415Z,15.68
2022-09-29T09:41:39.945Z,15.70
2022-09-29T09:44:18.110Z,15.75
2022-09-29T09:46:52.678Z,15.76
2022-09-29T09:49:26.534Z,15.79
2022-09-29T09:52:02.630Z,15.88
2022-09-29T09:54:37.153Z,16.09
2022-09-29T09:57:20.913Z,16.20
2022-09-29T10:00:06.388Z,16.27
2022-09-29T10:02:47.875Z,16.44
2022-09-29T10:05:20.705Z,16.56
2022-09-29T10:07:51.349Z,16.66
2022-09-29T10:10:23.135Z,16.74
2022-09-29T10:13:00.194Z,16.80
2022-09-29T10:15:36.772Z,16.82
2022-09-29T10:18:13.648Z,16.93
2022-09-29T10:20:44.608Z,17.06
2022-09-29T10:23:39.354Z,17.10
2022-09-29T10:26:16.878Z,17.11
2022-09-29T10:28:49.798Z,17.13
2022-09-29T10:31:26.883Z,17.16
2022-09-29T10:34:00.469Z,17.20
2022-09-29T10:36:34.107Z,17.25
2022-09-29T10:39:04.115Z,17.36
2022-09-29T10:41:54.615Z,17.50
2022-09-29T10:44:24.796Z,17.79
2022-09-29T10:46:59.387Z,18.16
2022-09-29T10:49:31.604Z,18.59
2022-09-29T10:52:05.367Z,18.93
2022-09-29T10:54:37.971Z,19.40
2022-09-29T10:57:18.884Z,19.84
2022-09-29T10:59:53.943Z,19.70
2022-09-29T11:02:35.132Z,19.54
2022-09-29T11:05:08.399Z,19.31
2022-09-29T11:07:47.591Z,18.95
2022-09-29T11:10:31.727Z,18.83
2022-09-29T11:13:01.855Z,18.78
2022-09-29T11:15:41.815Z,18.72
2022-09-29T11:18:24.208Z,18.58
2022-09-29T11:21:03.463Z,18.49
2022-09-29T11:23:41.732Z,18.30
2022-09-29T11:26:22.213Z,18.16
2022-09-29T11:29:19.440Z,18.15
2022-09-29T11:32:02.515Z,18.17
2022-09-29T11:34:53.454Z,18.38
2022-09-29T11:37:39.973Z,18.35
2022-09-29T11:40:15.321Z,18.23
2022-09-29T11:42:59.908Z,18.09
2022-09-29T11:45:41.007Z,18.02
2022-09-29T11:48:38.463Z,17.90
2022-09-29T11:51:28.795Z,17.77
2022-09-29T11:54:26.948Z,17.66
2022-09-29T11:57:03.149Z,17.48
2022-09-29T11:59:49.271Z,17.41
2022-09-29T12:02:44.737Z,17.25
2022-09-29T12:05:22.414Z,17.05
2022-09-29T12:08:10.880Z,16.93
2022-09-29T12:10:49.529Z,16.93
2022-09-29T12:13:29.743Z,16.93
2022-09-29T12:16:04.399Z,16.97
2022-09-29T12:18:41.311Z,16.96
2022-09-29T12:21:16.979Z,16.97
2022-09-29T12:23:51.452Z,17.04
2022-09-29T12:26:24.689Z,17.17
2022-09-29T12:29:01.569Z,17.65
2022-09-29T12:31:35.816Z,18.20
2022-09-29T12:34:09.718Z,18.71
2022-09-29T12:36:50.769Z,19.43
2022-09-29T12:39:36.238Z,21.05
2022-09-29T12:42:29.394Z,23.61
2022-09-29T12:45:10.803Z,24.61
2022-09-29T12:47:52.679Z,23.51
2022-09-29T12:50:29.729Z,22.22
2022-09-29T12:53:09.130Z,21.25
2022-09-29T12:55:48.553Z,20.39
2022-09-29T12:58:25.404Z,19.78
2022-09-29T13:01:03.919Z,19.33
2022-09-29T13:04:01.664Z,18.95
2022-09-29T13:06:48.001Z,18.69
2022-09-29T13:09:41.387Z,18.41
2022-09-29T13:12:30.971Z,18.27
2022-09-29T13:15:24.718Z,18.18
2022-09-29T13:18:13.265Z,18.25
2022-09-29T13:20:56.384Z,18.23
2022-09-29T13:23:40.210Z,18.21
2022-09-29T13:26:32.038Z,18.21
2022-09-29T13:29:11.820Z,18.11
2022-09-29T13:31:43.347Z,18.02
2022-09-29T13:34:25.282Z,17.94
2022-09-29T13:36:55.524Z,17.89
2022-09-29T13:39:29.063Z,17.84
2022-09-29T13:41:59.179Z,17.80
2022-09-29T13:44:33.154Z,17.73
2022-09-29T13:47:35.291Z,17.70
2022-09-29T13:50:41.975Z,17.69
2022-09-29T13:53:31.277Z,17.69
2022-09-29T13:56:14.334Z,17.65
2022-09-29T13:59:02.630Z,17.63
2022-09-29T14:01:39.605Z,17.63
2022-09-29T14:04:37.847Z,17.60
2022-09-29T14:07:12.866Z,17.62
2022-09-29T14:09:48.399Z,17.64
2022-09-29T14:12:25.870Z,17.61
2022-09-29T14:14:59.148Z,17.58
2022-09-29T14:17:37.228Z,17.53
2022-09-29T14:20:18.539Z,17.52
2022-09-29T14:22:57.965Z,17.48
2022-09-29T14:25:49.136Z,17.45
2022-09-29T14:28:23.620Z,17.46
2022-09-29T14:30:55.738Z,17.46
2022-09-29T14:33:32.265Z,17.44
2022-09-29T14:36:08.351Z,17.42
2022-09-29T14:38:41.846Z,17.41
2022-09-29T14:41:42.909Z,17.39
2022-09-29T14:44:16.361Z,17.40
2022-09-29T14:47:34.714Z,17.38
2022-09-29T14:50:39.115Z,17.36
2022-09-29T14:53:25.353Z,17.33
2022-09-29T14:56:04.726Z,17.33
2022-09-29T14:58:58.413Z,17.29
2022-09-29T15:01:31.065Z,17.29
2022-09-29T15:04:08.367Z,17.28
2022-09-29T15:06:48.909Z,17.27
2022-09-29T15:09:21.516Z,17.24
2022-09-29T15:11:54.035Z,17.15
2022-09-29T15:14:29.443Z,17.13
2022-09-29T15:17:10.873Z,17.14
2022-09-29T15:20:03.125Z,17.15
2022-09-29T15:22:53.621Z,17.16
2022-09-29T15:25:29.674Z,17.16
2022-09-29T15:28:03.286Z,17.13
2022-09-29T15:30:35.192Z,17.08
2022-09-29T15:33:21.402Z,17.05
2022-09-29T15:35:56.040Z,17.06
2022-09-29T15:38:38.523Z,17.03
2022-09-29T15:41:20.126Z,17.02
2022-09-29T15:43:57.171Z,17.02
2022-09-29T15:46:37.249Z,17.03
2022-09-29T15:49:15.710Z,17.00
2022-09-29T15:51:48.288Z,16.97
2022-09-29T15:54:20.854Z,16.96
2022-09-29T15:57:03.202Z,16.99
2022-09-29T15:59:51.496Z,16.94
2022-09-29T16:02:25.623Z,16.93
2022-09-29T16:04:58.787Z,16.93
2022-09-29T16:07:31.533Z,16.94
2022-09-29T16:10:10.481Z,16.93
2022-09-29T16:12:43.314Z,16.91
2022-09-29T16:15:22.544Z,16.86
2022-09-29T16:17:52.902Z,16.84
2022-09-29T16:20:29.020Z,16.81
2022-09-29T16:22:59.176Z,16.80
2022-09-29T16:25:34.585Z,16.77
2022-09-29T16:28:07.650Z,16.76
2022-09-29T16:30:39.127Z,16.76
2022-09-29T16:33:17.530Z,16.71
2022-09-29T16:36:06.476Z,16.71
2022-09-29T16:38:42.878Z,16.71
2022-09-29T16:41:24.058Z,16.68
2022-09-29T16:43:53.875Z,16.69
2022-09-29T16:46:27.127Z,16.66
2022-09-29T16:48:58.137Z,16.62
2022-09-29T16:51:38.760Z,16.58
2022-09-29T16:54:09.484Z,16.57
2022-09-29T16:56:41.993Z,16.53
2022-09-29T16:59:15.328Z,16.50
2022-09-29T17:01:46.478Z,16.44
2022-09-29T17:04:17.277Z,16.44
2022-09-29T17:06:50.364Z,16.41
2022-09-29T17:09:23.850Z,16.34
2022-09-29T17:11:56.778Z,16.32
2022-09-29T17:14:29.639Z,16.27
2022-09-29T17:17:00.213Z,16.29
2022-09-29T17:19:30.472Z,16.27
2022-09-29T17:22:02.676Z,16.23
2022-09-29T17:24:32.873Z,16.24
2022-09-29T17:27:17.975Z,16.20
2022-09-29T17:29:47.821Z,16.18
2022-09-29T17:32:18.845Z,16.18
2022-09-29T17:34:48.882Z,16.14
2022-09-29T17:37:19.750Z,16.12
2022-09-29T17:39:49.633Z,16.11
2022-09-29T17:42:27.047Z,16.09
2022-09-29T17:44:57.754Z,16.09
2022-09-29T17:47:29.653Z,16.10
2022-09-29T17:50:12.738Z,16.08
2022-09-29T17:52:43.401Z,16.09
2022-09-29T17:55:13.724Z,16.07
2022-09-29T17:57:47.823Z,16.07
2022-09-29T18:00:21.378Z,16.04
2022-09-29T18:02:51.630Z,16.03
2022-09-29T18:05:23.768Z,16.03
2022-09-29T18:07:54.667Z,16.02
2022-09-29T18:10:29.492Z,16.02
2022-09-29T18:13:02.014Z,15.99
2022-09-29T18:15:32.264Z,15.97
2022-09-29T18:18:03.835Z,15.94
2022-09-29T18:20:36.111Z,15.89
2022-09-29T18:23:05.982Z,15.90
2022-09-29T18:25:36.795Z,15.85
2022-09-29T18:28:09.280Z,15.82
2022-09-29T18:30:40.246Z,15.79
2022-09-29T18:33:15.086Z,15.76
2022-09-29T18:35:46.980Z,15.73
2022-09-29T18:38:16.851Z,15.70
2022-09-29T18:40:47.272Z,15.69
2022-09-29T18:43:20.751Z,15.64
2022-09-29T18:45:51.944Z,15.64
2022-09-29T18:48:21.756Z,15.64
2022-09-29T18:50:53.595Z,15.61
2022-09-29T18:53:25.188Z,15.62
2022-09-29T18:56:07.077Z,15.60
2022-09-29T18:58:39.593Z,15.60
2022-09-29T19:01:09.646Z,15.54
2022-09-29T19:03:40.611Z,15.49
2022-09-29T19:06:16.324Z,15.46
2022-09-29T19:08:49.192Z,15.46
2022-09-29T19:11:21.275Z,15.44
2022-09-29T19:13:56.255Z,15.44
2022-09-29T19:16:28.294Z,15.45
2022-09-29T19:18:59.158Z,15.45
2022-09-29T19:21:29.007Z,15.46
2022-09-29T19:23:59.018Z,15.46
2022-09-29T19:26:30.443Z,15.46
2022-09-29T19:29:03.018Z,15.43
2022-09-29T19:31:33.269Z,15.43
2022-09-29T19:34:09.570Z,15.43
2022-09-29T19:36:39.620Z,15.42
2022-09-29T19:39:12.134Z,15.40
2022-09-29T19:41:42.353Z,15.38
2022-09-29T19:44:15.034Z,15.39
2022-09-29T19:46:45.186Z,15.37
2022-09-29T19:49:15.128Z,15.36
2022-09-29T19:51:53.018Z,15.36
2022-09-29T19:54:26.966Z,15.33
2022-09-29T19:56:59.657Z,15.31
2022-09-29T19:59:34.669Z,15.32
2022-09-29T20:02:06.771Z,15.30
2022-09-29T20:04:38.582Z,15.26
2022-09-29T20:07:09.506Z,15.23
2022-09-29T20:09:40.048Z,15.22
2022-09-29T20:12:09.943Z,15.19
2022-09-29T20:14:43.022Z,15.16
2022-09-29T20:17:14.024Z,15.14
2022-09-29T20:19:44.764Z,15.11
2022-09-29T20:22:15.210Z,15.10
2022-09-29T20:24:45.495Z,15.08
2022-09-29T20:27:15.627Z,15.04
2022-09-29T20:29:48.587Z,15.02
2022-09-29T20:32:19.120Z,15.04
2022-09-29T20:34:49.490Z,15.03
2022-09-29T20:37:19.250Z,15.01
2022-09-29T20:39:50.173Z,14.98
2022-09-29T20:42:20.239Z,14.96
2022-09-29T20:44:55.122Z,14.93
2022-09-29T20:47:25.419Z,14.91
2022-09-29T20:49:56.547Z,14.90
2022-09-29T20:52:26.610Z,14.91
2022-09-29T20:55:02.582Z,14.90
2022-09-29T20:57:32.501Z,14.90
2022-09-29T21:00:05.214Z,14.85
2022-09-29T21:02:35.179Z,14.84
2022-09-29T21:05:05.351Z,14.84
2022-09-29T21:07:43.077Z,14.81
2022-09-29T21:10:13.424Z,14.80
2022-09-29T21:12:44.656Z,14.80
2022-09-29T21:15:17.296Z,14.79
2022-09-29T21:17:47.132Z,14.80
2022-09-29T21:20:28.026Z,14.77
2022-09-29T21:22:58.206Z,14.75
2022-09-29T21:26:05.621Z,14.73
2022-09-29T21:28:41.637Z,14.73
2022-09-29T21:31:17.172Z,14.69
2022-09-29T21:33:49.037Z,14.69
2022-09-29T21:36:26.668Z,14.64
2022-09-29T21:39:14.626Z,14.62
2022-09-29T21:41:50.274Z,14.58
2022-09-29T21:44:25.035Z,14.54
2022-09-29T21:46:57.580Z,14.52
2022-09-29T21:49:27.474Z,14.50
2022-09-29T21:52:23.227Z,14.50
2022-09-29T21:55:01.754Z,14.47
2022-09-29T21:57:57.841Z,14.47
2022-09-29T22:00:53.959Z,14.43
2022-09-29T22:03:38.257Z,14.38
2022-09-29T22:06:36.705Z,14.35
2022-09-29T22:09:15.754Z,14.34
2022-09-29T22:11:45.720Z,14.31
2022-09-29T22:14:48.356Z,14.27
2022-09-29T22:17:24.992Z,14.25
2022-09-29T22:20:06.717Z,14.22
2022-09-29T22:22:36.740Z,14.20
2022-09-29T22:25:33.008Z,14.19
2022-09-29T22:28:21.715Z,14.15
2022-09-29T22:30:54.944Z,14.10
2022-09-29T22:33:36.325Z,14.11
2022-09-29T22:36:24.102Z,14.09
2022-09-29T22:39:08.782Z,14.12
2022-09-29T22:41:42.219Z,14.15
2022-09-29T22:44:19.266Z,14.15
2022-09-29T22:46:57.988Z,14.16
2022-09-29T22:49:33.801Z,14.16
2022-09-29T22:52:06.770Z,14.16
2022-09-29T22:54:41.878Z,14.18
2022-09-29T22:57:11.780Z,14.19
2022-09-29T22:59:59.629Z,14.18
2022-09-29T23:02:32.374Z,14.16
2022-09-29T23:05:02.199Z,14.14
2022-09-29T23:07:38.036Z,14.14
2022-09-29T23:10:13.655Z,14.15
2022-09-29T23:12:46.370Z,14.15
2022-09-29T23:15:16.845Z,14.16
2022-09-29T23:17:52.977Z,14.15
2022-09-29T23:20:40.643Z,14.15
2022-09-29T23:23:13.384Z,14.11
2022-09-29T23:25:50.361Z,14.07
2022-09-29T23:28:23.311Z,14.05
2022-09-29T23:30:59.331Z,14.02
2022-09-29T23:33:55.902Z,13.98
2022-09-29T23:36:49.641Z,13.97
2022-09-29T23:39:38.134Z,13.93
2022-09-29T23:42:27.915Z,13.90
2022-09-29T23:44:57.833Z,13.88
2022-09-29T23:47:28.212Z,13.83
2022-09-29T23:49:58.043Z,13.83
2022-09-29T23:52:28.040Z,13.81
2022-09-29T23:55:00.581Z,13.79
2022-09-29T23:57:30.455Z,13.78
